createdAt,value
2022-12-18T00:00:06.946Z,101464.30
2022-12-18T00:03:02.185Z,101467.74
2022-12-18T00:05:30.313Z,101471.52
2022-12-18T00:07:58.225Z,101471.88
2022-12-18T00:10:26.500Z,101475.15
2022-12-18T00:12:54.493Z,101480.13
2022-12-18T00:15:22.517Z,101483.91
2022-12-18T00:17:50.581Z,101490.61
2022-12-18T00:20:22.878Z,101494.23
2022-12-18T00:22:50.744Z,101493.20
2022-12-18T00:25:18.768Z,101493.38
2022-12-18T00:27:46.864Z,101501.27
2022-12-18T00:30:15.330Z,101510.38
2022-12-18T00:32:43.645Z,101511.23
2022-12-18T00:35:11.573Z,101514.67
2022-12-18T00:37:39.699Z,101515.72
2022-12-18T00:40:08.676Z,101517.78
2022-12-18T00:42:55.178Z,101523.11
2022-12-18T00:45:28.412Z,101527.40
2022-12-18T00:47:57.566Z,101529.47
2022-12-18T00:50:26.206Z,101533.76
2022-12-18T00:52:54.121Z,101542.52
2022-12-18T00:55:22.086Z,101549.55
2022-12-18T00:57:53.312Z,101551.95
2022-12-18T01:00:21.607Z,101554.38
2022-12-18T01:02:49.679Z,101555.92
2022-12-18T01:05:17.782Z,101555.08
2022-12-18T01:07:45.615Z,101557.66
2022-12-18T01:10:14.677Z,101557.15
2022-12-18T01:12:42.804Z,101561.27
2022-12-18T01:15:14.828Z,101563.33
2022-12-18T01:17:43.184Z,101561.95
2022-12-18T01:20:13.040Z,101567.27
2022-12-18T01:22:41.003Z,101565.39
2022-12-18T01:25:09.620Z,101567.80
2022-12-18T01:27:37.720Z,101569.17
2022-12-18T01:30:06.347Z,101572.78
2022-12-18T01:32:34.420Z,101577.59
2022-12-18T01:35:04.441Z,101578.10
2022-12-18T01:37:32.412Z,101579.48
2022-12-18T01:40:00.211Z,101580.69
2022-12-18T01:42:28.078Z,101584.46
2022-12-18T01:45:04.804Z,101588.45
2022-12-18T01:47:39.225Z,101597.03
2022-12-18T01:50:14.669Z,101603.39
2022-12-18T01:52:46.121Z,101609.05
2022-12-18T01:55:17.818Z,101608.36
2022-12-18T01:57:46.254Z,101611.63
2022-12-18T02:00:19.874Z,101616.61
2022-12-18T02:02:49.016Z,101615.05
2022-12-18T02:05:24.559Z,101616.08
2022-12-18T02:08:10.283Z,101619.51
2022-12-18T02:10:53.307Z,101621.40
2022-12-18T02:13:28.645Z,101623.81
2022-12-18T02:16:20.441Z,101626.39
2022-12-18T02:18:59.091Z,101631.20
2022-12-18T02:21:46.302Z,101635.48
2022-12-18T02:24:35.868Z,101638.25
2022-12-18T02:27:08.209Z,101645.14
2022-12-18T02:29:46.294Z,101647.71
2022-12-18T02:32:25.557Z,101650.29
2022-12-18T02:34:57.530Z,101653.54
2022-12-18T02:37:28.447Z,101657.49
2022-12-18T02:39:59.448Z,101660.77
2022-12-18T02:42:29.040Z,101664.17
2022-12-18T02:44:57.349Z,101670.00
2022-12-18T02:47:32.103Z,101669.33
2022-12-18T02:50:03.561Z,101668.76
2022-12-18T02:52:38.017Z,101667.70
2022-12-18T02:55:48.892Z,101672.49
2022-12-18T02:58:45.744Z,101671.61
2022-12-18T03:01:29.498Z,101681.39
2022-12-18T03:04:14.443Z,101682.10
2022-12-18T03:06:50.630Z,101681.58
2022-12-18T03:09:43.165Z,101680.22
2022-12-18T03:12:28.936Z,101682.11
2022-12-18T03:15:16.002Z,101687.27
2022-12-18T03:18:03.823Z,101695.33
2022-12-18T03:20:35.576Z,101697.91
2022-12-18T03:23:16.845Z,101696.84
2022-12-18T03:25:50.811Z,101704.06
2022-12-18T03:28:22.983Z,101704.73
2022-12-18T03:30:59.242Z,101706.79
2022-12-18T03:33:33.915Z,101711.26
2022-12-18T03:36:02.399Z,101713.33
2022-12-18T03:38:30.312Z,101719.64
2022-12-18T03:41:08.511Z,101722.71
2022-12-18T03:44:05.233Z,101732.36
2022-12-18T03:46:48.593Z,101738.90
2022-12-18T03:50:15.873Z,101742.69
2022-12-18T03:53:11.798Z,101741.50
2022-12-18T03:55:41.413Z,101739.75
2022-12-18T03:58:14.220Z,101738.51
2022-12-18T04:00:57.292Z,101739.17
2022-12-18T04:03:27.404Z,101744.27
2022-12-18T04:05:57.648Z,101749.23
2022-12-18T04:08:26.954Z,101757.23
2022-12-18T04:11:03.857Z,101764.42
2022-12-18T04:13:37.753Z,101767.85
2022-12-18T04:16:10.504Z,101775.36
2022-12-18T04:18:40.633Z,101783.08
2022-12-18T04:21:09.730Z,101780.33
2022-12-18T04:23:38.510Z,101782.17
2022-12-18T04:26:06.792Z,101790.73
2022-12-18T04:28:44.495Z,101795.55
2022-12-18T04:31:13.295Z,101796.41
2022-12-18T04:33:41.660Z,101792.96
2022-12-18T04:36:11.059Z,101799.22
2022-12-18T04:38:39.751Z,101808.32
2022-12-18T04:41:10.220Z,101806.23
2022-12-18T04:43:39.054Z,101804.17
2022-12-18T04:46:09.365Z,101812.11
2022-12-18T04:48:37.979Z,101816.05
2022-12-18T04:51:06.975Z,101822.53
2022-12-18T04:53:34.931Z,101824.91
2022-12-18T04:56:14.775Z,101829.52
2022-12-18T04:58:44.302Z,101832.77
2022-12-18T05:01:14.612Z,101835.00
2022-12-18T05:03:44.111Z,101839.10
2022-12-18T05:06:12.370Z,101845.08
2022-12-18T05:08:40.657Z,101848.18
2022-12-18T05:11:12.034Z,101852.48
2022-12-18T05:13:40.386Z,101855.09
2022-12-18T05:16:09.404Z,101860.98
2022-12-18T05:18:38.001Z,101863.06
2022-12-18T05:21:06.702Z,101867.18
2022-12-18T05:23:34.716Z,101865.78
2022-12-18T05:26:05.953Z,101871.09
2022-12-18T05:28:35.581Z,101872.23
2022-12-18T05:31:05.136Z,101872.05
2022-12-18T05:33:35.483Z,101877.52
2022-12-18T05:36:05.972Z,101882.63
2022-12-18T05:38:36.526Z,101883.45
2022-12-18T05:41:04.874Z,101887.38
2022-12-18T05:43:34.718Z,101889.76
2022-12-18T05:46:07.527Z,101898.91
2022-12-18T05:48:36.013Z,101908.30
2022-12-18T05:51:15.536Z,101910.84
2022-12-18T05:53:44.234Z,101917.04
2022-12-18T05:56:15.854Z,101913.27
2022-12-18T05:58:44.726Z,101913.48
2022-12-18T06:01:16.043Z,101916.46
2022-12-18T06:03:44.394Z,101922.14
2022-12-18T06:06:18.723Z,101929.64
2022-12-18T06:08:47.630Z,101940.23
2022-12-18T06:11:19.682Z,101946.04
2022-12-18T06:13:47.954Z,101952.17
2022-12-18T06:16:15.865Z,101955.63
2022-12-18T06:18:44.439Z,101959.83
2022-12-18T06:21:12.480Z,101965.24
2022-12-18T06:23:40.833Z,101967.34
2022-12-18T06:26:12.004Z,101968.88
2022-12-18T06:28:40.269Z,101971.61
2022-12-18T06:31:08.780Z,101969.52
2022-12-18T06:33:37.696Z,101974.36
2022-12-18T06:36:11.587Z,101980.01
2022-12-18T06:38:43.648Z,101986.94
2022-12-18T06:41:15.286Z,101994.28
2022-12-18T06:43:44.156Z,101995.20
2022-12-18T06:46:12.898Z,102001.66
2022-12-18T06:48:41.533Z,102008.92
2022-12-18T06:51:09.591Z,102013.60
2022-12-18T06:53:37.872Z,102012.98
2022-12-18T06:56:10.534Z,102013.39
2022-12-18T06:58:40.238Z,102017.81
2022-12-18T07:01:11.468Z,102024.91
2022-12-18T07:03:43.369Z,102029.88
2022-12-18T07:06:20.656Z,102029.72
2022-12-18T07:08:49.787Z,102031.45
2022-12-18T07:11:19.012Z,102037.98
2022-12-18T07:13:47.740Z,102040.07
2022-12-18T07:16:24.225Z,102044.09
2022-12-18T07:19:13.716Z,102045.00
2022-12-18T07:21:41.686Z,102050.60
2022-12-18T07:24:09.649Z,102054.77
2022-12-18T07:26:37.751Z,102056.52
2022-12-18T07:29:05.671Z,102056.39
2022-12-18T07:31:33.615Z,102058.48
2022-12-18T07:34:01.604Z,102064.05
2022-12-18T07:36:29.680Z,102067.41
2022-12-18T07:38:57.605Z,102070.02
2022-12-18T07:41:25.486Z,102070.89
2022-12-18T07:43:53.452Z,102075.40
2022-12-18T07:46:21.511Z,102084.84
2022-12-18T07:48:50.433Z,102091.66
2022-12-18T07:51:19.637Z,102095.14
2022-12-18T07:53:51.164Z,102100.20
2022-12-18T07:56:27.837Z,102101.92
2022-12-18T07:58:57.565Z,102103.30
2022-12-18T08:01:26.437Z,102106.02
2022-12-18T08:03:54.650Z,102108.65
2022-12-18T08:06:24.364Z,102110.77
2022-12-18T08:08:54.581Z,102112.93
2022-12-18T08:11:24.208Z,102114.14
2022-12-18T08:13:52.368Z,102121.26
2022-12-18T08:16:20.951Z,102125.11
2022-12-18T08:18:49.575Z,102123.91
2022-12-18T08:21:24.820Z,102125.13
2022-12-18T08:23:55.091Z,102129.80
2022-12-18T08:26:25.367Z,102131.38
2022-12-18T08:28:55.368Z,102133.24
2022-12-18T08:31:24.879Z,102141.00
2022-12-18T08:33:54.471Z,102142.02
2022-12-18T08:36:24.561Z,102144.79
2022-12-18T08:38:53.554Z,102147.58
2022-12-18T08:41:21.753Z,102145.41
2022-12-18T08:44:08.944Z,102145.61
2022-12-18T08:46:39.921Z,102142.02
2022-12-18T08:49:08.516Z,102137.60
2022-12-18T08:51:37.091Z,102140.20
2022-12-18T08:54:06.640Z,102140.58
2022-12-18T08:56:45.939Z,102141.45
2022-12-18T08:59:20.776Z,102140.80
2022-12-18T09:01:49.410Z,102147.52
2022-12-18T09:04:18.109Z,102150.42
2022-12-18T09:06:45.998Z,102155.27
2022-12-18T09:09:14.084Z,102163.05
2022-12-18T09:11:42.264Z,102167.21
2022-12-18T09:14:11.073Z,102167.31
2022-12-18T09:16:39.177Z,102168.05
2022-12-18T09:19:11.140Z,102170.61
2022-12-18T09:21:47.760Z,102171.19
2022-12-18T09:24:17.365Z,102176.69
2022-12-18T09:26:47.998Z,102178.92
2022-12-18T09:29:18.695Z,102177.02
2022-12-18T09:31:47.639Z,102173.30
2022-12-18T09:34:16.070Z,102173.84
2022-12-18T09:36:44.334Z,102173.23
2022-12-18T09:39:12.213Z,102172.31
2022-12-18T09:41:45.299Z,102173.05
2022-12-18T09:44:38.889Z,102178.11
2022-12-18T09:50:28.364Z,102186.95
2022-12-18T09:53:00.703Z,102188.85
2022-12-18T09:55:40.753Z,102189.77
2022-12-18T09:58:11.461Z,102190.34
2022-12-18T10:00:39.541Z,102188.67
2022-12-18T10:03:13.596Z,102185.74
2022-12-18T10:06:14.739Z,102186.79
2022-12-18T10:09:05.045Z,102185.16
2022-12-18T10:11:45.556Z,102184.28
2022-12-18T10:14:18.467Z,102185.64
2022-12-18T10:17:05.671Z,102183.59
2022-12-18T10:19:42.196Z,102181.58
2022-12-18T10:22:15.936Z,102182.13
2022-12-18T10:24:59.252Z,102178.55
2022-12-18T10:27:29.765Z,102174.41
2022-12-18T10:29:58.577Z,102173.21
2022-12-18T10:32:30.197Z,102173.59
2022-12-18T10:35:00.892Z,102168.98
2022-12-18T10:37:31.018Z,102169.52
2022-12-18T10:40:21.996Z,102168.80
2022-12-18T10:43:12.874Z,102169.98
2022-12-18T10:45:41.646Z,102169.97
2022-12-18T10:48:22.064Z,102165.52
2022-12-18T10:53:43.866Z,102163.02
2022-12-18T10:56:13.389Z,102163.40
2022-12-18T10:58:41.903Z,102162.88
2022-12-18T11:01:14.478Z,102161.63
2022-12-18T11:03:45.420Z,102159.87
2022-12-18T11:06:15.840Z,102161.56
2022-12-18T11:08:45.626Z,102160.00
2022-12-18T11:11:25.263Z,102162.44
2022-12-18T11:14:22.777Z,102164.70
2022-12-18T11:19:42.323Z,102163.75
2022-12-18T11:22:29.763Z,102158.98
2022-12-18T11:27:53.671Z,102158.35
2022-12-18T11:30:24.933Z,102161.91
2022-12-18T11:32:58.778Z,102164.98
2022-12-18T11:35:51.801Z,102162.05
2022-12-18T11:38:35.548Z,102167.25
2022-12-18T11:41:07.260Z,102169.46
2022-12-18T11:43:42.335Z,102171.70
2022-12-18T11:46:19.299Z,102176.34
2022-12-18T11:48:59.455Z,102177.48
2022-12-18T11:51:36.231Z,102176.09
2022-12-18T11:54:14.834Z,102176.08
2022-12-18T11:56:50.935Z,102174.34
2022-12-18T11:59:26.830Z,102173.13
2022-12-18T12:02:22.469Z,102171.27
2022-12-18T12:05:39.449Z,102171.52
2022-12-18T12:08:22.808Z,102171.06
2022-12-18T12:11:08.961Z,102172.77
2022-12-18T12:13:44.919Z,102179.35
2022-12-18T12:16:12.862Z,102176.23
2022-12-18T12:18:57.856Z,102175.73
2022-12-18T12:21:43.639Z,102174.19
2022-12-18T12:24:39.443Z,102173.48
2022-12-18T12:27:29.464Z,102171.39
2022-12-18T12:30:16.985Z,102167.57
2022-12-18T12:33:09.889Z,102169.98
2022-12-18T12:36:16.114Z,102168.48
2022-12-18T12:38:53.048Z,102167.13
2022-12-18T12:41:47.401Z,102166.30
2022-12-18T12:44:24.971Z,102161.48
2022-12-18T12:46:56.257Z,102162.70
2022-12-18T12:49:28.938Z,102162.76
2022-12-18T12:52:11.753Z,102167.07
2022-12-18T12:54:40.080Z,102166.91
2022-12-18T12:57:14.979Z,102167.91
2022-12-18T13:00:15.627Z,102174.77
2022-12-18T13:03:00.865Z,102176.16
2022-12-18T13:05:32.831Z,102178.94
2022-12-18T13:08:04.331Z,102181.30
2022-12-18T13:10:40.699Z,102183.48
2022-12-18T13:13:17.222Z,102178.43
2022-12-18T13:16:11.730Z,102177.74
2022-12-18T13:18:40.114Z,102182.56
2022-12-18T13:21:24.999Z,102184.11
2022-12-18T13:23:53.012Z,102188.96
2022-12-18T13:26:27.926Z,102195.38
2022-12-18T13:28:59.397Z,102197.13
2022-12-18T13:31:43.539Z,102197.81
2022-12-18T13:34:27.737Z,102203.14
2022-12-18T13:37:18.869Z,102207.29
2022-12-18T13:39:47.136Z,102213.14
2022-12-18T13:42:35.497Z,102217.52
2022-12-18T13:45:43.035Z,102221.98
2022-12-18T13:48:39.180Z,102227.79
2022-12-18T13:51:10.831Z,102228.55
2022-12-18T13:53:52.546Z,102234.35
2022-12-18T13:56:26.966Z,102239.64
2022-12-18T13:59:17.642Z,102243.67
2022-12-18T14:01:51.543Z,102246.71
2022-12-18T14:04:24.823Z,102249.27
2022-12-18T14:06:59.875Z,102254.24
2022-12-18T14:09:32.269Z,102259.34
2022-12-18T14:12:19.694Z,102262.23
2022-12-18T14:14:55.001Z,102268.90
2022-12-18T14:17:24.190Z,102275.41
2022-12-18T14:19:52.832Z,102277.27
2022-12-18T14:22:31.059Z,102279.48
2022-12-18T14:25:14.029Z,102280.27
2022-12-18T14:27:50.696Z,102281.15
2022-12-18T14:30:28.096Z,102283.55
2022-12-18T14:33:18.714Z,102285.46
2022-12-18T14:36:04.510Z,102287.73
2022-12-18T14:38:42.773Z,102283.06
2022-12-18T14:41:16.390Z,102285.42
2022-12-18T14:43:48.198Z,102289.70
2022-12-18T14:46:39.275Z,102294.41
2022-12-18T14:49:30.301Z,102296.23
2022-12-18T14:52:07.246Z,102300.98
2022-12-18T14:54:38.295Z,102308.14
2022-12-18T14:57:21.793Z,102310.65
2022-12-18T14:59:50.816Z,102315.55
2022-12-18T15:02:27.893Z,102321.30
2022-12-18T15:05:18.131Z,102322.67
2022-12-18T15:07:53.528Z,102317.45
2022-12-18T15:10:31.071Z,102316.03
2022-12-18T15:13:02.507Z,102313.67
2022-12-18T15:15:36.772Z,102314.23
2022-12-18T15:18:08.924Z,102314.23
2022-12-18T15:20:43.996Z,102317.11
2022-12-18T15:23:47.091Z,102318.95
2022-12-18T15:26:17.775Z,102316.29
2022-12-18T15:28:49.012Z,102317.27
2022-12-18T15:31:18.105Z,102317.54
2022-12-18T15:34:04.060Z,102315.95
2022-12-18T15:36:31.993Z,102316.98
2022-12-18T15:39:04.779Z,102318.86
2022-12-18T15:41:36.208Z,102320.07
2022-12-18T15:44:26.457Z,102323.30
2022-12-18T15:46:58.301Z,102327.42
2022-12-18T15:49:26.243Z,102329.64
2022-12-18T15:51:57.845Z,102332.73
2022-12-18T15:54:44.378Z,102334.15
2022-12-18T15:57:24.954Z,102336.07
2022-12-18T15:59:57.392Z,102336.81
2022-12-18T16:02:26.069Z,102341.80
2022-12-18T16:04:55.132Z,102346.14
2022-12-18T16:07:24.998Z,102347.09
2022-12-18T16:09:54.092Z,102353.98
2022-12-18T16:12:26.531Z,102352.37
2022-12-18T16:14:54.284Z,102353.70
2022-12-18T16:17:22.227Z,102357.10
2022-12-18T16:19:50.100Z,102356.16
2022-12-18T16:22:27.773Z,102360.96
2022-12-18T16:24:57.310Z,102363.46
2022-12-18T16:27:26.033Z,102362.27
2022-12-18T16:29:54.003Z,102359.98
2022-12-18T16:32:23.665Z,102362.48
2022-12-18T16:34:52.771Z,102358.82
2022-12-18T16:37:20.703Z,102362.59
2022-12-18T16:39:48.563Z,102363.77
2022-12-18T16:42:20.307Z,102370.79
2022-12-18T16:44:50.188Z,102371.70
2022-12-18T16:47:19.188Z,102377.23
2022-12-18T16:49:47.553Z,102380.34
2022-12-18T16:52:15.911Z,102386.64
2022-12-18T16:54:46.001Z,102389.55
2022-12-18T16:57:16.602Z,102390.23
2022-12-18T16:59:44.977Z,102393.89
2022-12-18T17:02:21.798Z,102391.27
2022-12-18T17:04:54.952Z,102393.36
2022-12-18T17:07:24.251Z,102398.11
2022-12-18T17:09:54.061Z,102400.70
2022-12-18T17:12:22.508Z,102405.20
2022-12-18T17:14:50.705Z,102409.73
2022-12-18T17:17:22.342Z,102409.89
2022-12-18T17:19:52.527Z,102407.91
2022-12-18T17:22:23.299Z,102411.34
2022-12-18T17:24:51.282Z,102416.09
2022-12-18T17:27:19.348Z,102416.63
2022-12-18T17:29:48.852Z,102414.85
2022-12-18T17:32:18.466Z,102415.52
2022-12-18T17:34:46.763Z,102417.23
2022-12-18T17:37:15.783Z,102419.86
2022-12-18T17:39:43.836Z,102420.20
2022-12-18T17:42:14.892Z,102423.36
2022-12-18T17:44:44.859Z,102429.66
2022-12-18T17:47:13.963Z,102432.20
2022-12-18T17:49:41.913Z,102434.77
2022-12-18T17:52:10.309Z,102434.23
2022-12-18T17:54:41.396Z,102436.45
2022-12-18T17:57:09.651Z,102441.74
2022-12-18T17:59:37.559Z,102443.89
2022-12-18T18:02:05.842Z,102447.52
2022-12-18T18:04:34.591Z,102448.54
2022-12-18T18:07:03.160Z,102446.14
2022-12-18T18:09:32.492Z,102445.30
2022-12-18T18:12:19.021Z,102443.92
2022-12-18T18:14:47.064Z,102444.02
2022-12-18T18:17:15.040Z,102446.92
2022-12-18T18:19:44.185Z,102448.52
2022-12-18T18:22:16.935Z,102452.48
2022-12-18T18:24:46.798Z,102455.72
2022-12-18T18:27:15.138Z,102455.79
2022-12-18T18:29:43.247Z,102454.25
2022-12-18T18:32:11.158Z,102452.48
2022-12-18T18:34:40.865Z,102459.67
2022-12-18T18:37:11.856Z,102459.41
2022-12-18T18:39:39.844Z,102456.87
2022-12-18T18:42:08.432Z,102450.96
2022-12-18T18:44:39.144Z,102451.42
2022-12-18T18:47:09.608Z,102450.60
2022-12-18T18:49:37.644Z,102451.00
2022-12-18T18:52:07.269Z,102458.91
2022-12-18T18:54:35.334Z,102464.10
2022-12-18T18:57:19.911Z,102467.15
2022-12-18T18:59:49.178Z,102468.62
2022-12-18T19:02:17.926Z,102459.52
2022-12-18T19:04:46.985Z,102453.46
2022-12-18T19:07:25.607Z,102449.96
2022-12-18T19:10:04.580Z,102453.21
2022-12-18T19:12:53.163Z,102452.60
2022-12-18T19:15:21.992Z,102448.01
2022-12-18T19:17:50.252Z,102447.85
2022-12-18T19:20:18.355Z,102447.92
2022-12-18T19:22:52.208Z,102453.96
2022-12-18T19:25:39.993Z,102452.93
2022-12-18T19:28:10.014Z,102450.06
2022-12-18T19:30:52.445Z,102449.63
2022-12-18T19:33:42.460Z,102446.64
2022-12-18T19:36:19.620Z,102446.86
2022-12-18T19:38:49.307Z,102444.17
2022-12-18T19:41:18.825Z,102443.62
2022-12-18T19:43:47.901Z,102446.02
2022-12-18T19:46:18.400Z,102446.25
2022-12-18T19:48:47.034Z,102444.18
2022-12-18T19:51:18.814Z,102447.04
2022-12-18T19:53:47.015Z,102441.69
2022-12-18T19:56:18.411Z,102448.30
2022-12-18T19:58:46.659Z,102451.26
2022-12-18T20:01:16.748Z,102460.26
2022-12-18T20:03:51.581Z,102468.51
2022-12-18T20:06:27.139Z,102465.52
2022-12-18T20:08:59.968Z,102460.46
2022-12-18T20:11:41.590Z,102456.02
2022-12-18T20:14:11.944Z,102457.38
2022-12-18T20:16:40.935Z,102464.62
2022-12-18T20:19:10.641Z,102473.55
2022-12-18T20:21:38.678Z,102470.23
2022-12-18T20:24:08.341Z,102472.27
2022-12-18T20:26:36.424Z,102480.69
2022-12-18T20:29:05.092Z,102479.39
2022-12-18T20:31:32.997Z,102488.14
2022-12-18T20:34:02.788Z,102497.35
2022-12-18T20:36:34.282Z,102503.29
2022-12-18T20:39:07.253Z,102506.81
2022-12-18T20:41:38.734Z,102507.11
2022-12-18T20:44:21.425Z,102502.04
2022-12-18T20:46:57.224Z,102497.31
2022-12-18T20:49:26.883Z,102493.77
2022-12-18T20:51:57.268Z,102501.98
2022-12-18T20:54:27.543Z,102508.97
2022-12-18T20:56:56.876Z,102507.89
2022-12-18T20:59:25.929Z,102504.83
2022-12-18T21:01:54.412Z,102499.74
2022-12-18T21:04:24.227Z,102501.49
2022-12-18T21:07:00.799Z,102503.64
2022-12-18T21:09:36.945Z,102504.88
2022-12-18T21:12:40.464Z,102505.77
2022-12-18T21:15:16.803Z,102505.09
2022-12-18T21:17:45.430Z,102511.19
2022-12-18T21:20:17.917Z,102515.02
2022-12-18T21:22:47.292Z,102517.38
2022-12-18T21:25:15.404Z,102519.80
2022-12-18T21:27:43.357Z,102521.38
2022-12-18T21:30:12.152Z,102524.80
2022-12-18T21:32:40.947Z,102529.96
2022-12-18T21:35:09.661Z,102537.23
2022-12-18T21:37:37.493Z,102534.32
2022-12-18T21:40:06.251Z,102528.88
2022-12-18T21:42:52.618Z,102530.40
2022-12-18T21:45:20.786Z,102535.70
2022-12-18T21:47:48.875Z,102537.84
2022-12-18T21:50:16.928Z,102536.14
2022-12-18T21:52:44.854Z,102540.66
2022-12-18T21:55:12.945Z,102542.41
2022-12-18T21:57:41.148Z,102543.05
2022-12-18T22:00:18.452Z,102547.20
2022-12-18T22:03:07.376Z,102550.96
2022-12-18T22:05:38.228Z,102562.44
2022-12-18T22:08:06.938Z,102563.05
2022-12-18T22:10:36.075Z,102559.80
2022-12-18T22:13:05.252Z,102553.06
2022-12-18T22:15:33.132Z,102550.77
2022-12-18T22:18:10.598Z,102551.10
2022-12-18T22:20:39.446Z,102550.38
2022-12-18T22:23:07.596Z,102549.91
2022-12-18T22:25:38.920Z,102547.63
2022-12-18T22:28:26.835Z,102546.34
2022-12-18T22:30:59.515Z,102542.66
2022-12-18T22:33:28.520Z,102539.05
2022-12-18T22:35:56.755Z,102537.80
2022-12-18T22:38:24.603Z,102536.55
2022-12-18T22:40:52.638Z,102534.63
2022-12-18T22:43:20.607Z,102534.19
2022-12-18T22:45:49.113Z,102531.52
2022-12-18T22:48:17.426Z,102531.41
2022-12-18T22:50:45.255Z,102531.43
2022-12-18T22:53:13.147Z,102528.36
2022-12-18T22:55:40.964Z,102529.10
2022-12-18T22:58:08.776Z,102534.30
2022-12-18T23:00:36.647Z,102533.29
2022-12-18T23:03:04.958Z,102526.16
2022-12-18T23:05:35.461Z,102525.23
2022-12-18T23:08:03.442Z,102518.70
2022-12-18T23:10:31.490Z,102520.43
2022-12-18T23:12:59.355Z,102521.39
2022-12-18T23:15:28.180Z,102525.10
2022-12-18T23:17:58.823Z,102523.23
2022-12-18T23:20:27.675Z,102524.14
2022-12-18T23:22:55.733Z,102524.06
2022-12-18T23:25:24.906Z,102519.41
2022-12-18T23:27:52.909Z,102521.89
2022-12-18T23:30:21.001Z,102526.19
2022-12-18T23:32:49.384Z,102524.58
2022-12-18T23:35:17.469Z,102521.80
2022-12-18T23:37:59.262Z,102521.75
2022-12-18T23:40:29.522Z,102519.70
2022-12-18T23:42:59.719Z,102519.49
2022-12-18T23:45:27.717Z,102516.15
2022-12-18T23:47:55.838Z,102518.67
2022-12-18T23:50:27.747Z,102520.02
2022-12-18T23:53:02.142Z,102525.03
2022-12-18T23:55:41.850Z,102528.98
2022-12-18T23:58:21.406Z,102532.73
